createdAt,value
2023-10-20T00:00:16.769Z,11.83
2023-10-20T00:03:19.618Z,11.81
2023-10-20T00:06:22.103Z,11.80
2023-10-20T00:09:26.135Z,11.83
2023-10-20T00:12:29.426Z,11.84
2023-10-20T00:15:31.838Z,11.86
2023-10-20T00:18:34.461Z,11.86
2023-10-20T00:21:36.879Z,11.87
2023-10-20T00:24:38.705Z,11.84
2023-10-20T00:27:46.556Z,11.84
2023-10-20T00:30:48.420Z,11.86
2023-10-20T00:33:51.518Z,11.83
2023-10-20T00:36:53.413Z,11.80
2023-10-20T00:39:55.496Z,11.86
2023-10-20T00:42:58.717Z,11.83
2023-10-20T00:46:00.698Z,11.81
2023-10-20T00:49:04.012Z,11.85
2023-10-20T00:52:07.836Z,11.81
2023-10-20T00:55:12.792Z,11.81
2023-10-20T00:58:16.100Z,11.83
2023-10-20T01:01:18.436Z,11.82
2023-10-20T01:04:20.731Z,11.81
2023-10-20T01:07:22.524Z,11.79
2023-10-20T01:10:25.635Z,11.75
2023-10-20T01:13:28.837Z,11.76
2023-10-20T01:16:30.700Z,11.78
2023-10-20T01:19:33.616Z,11.74
2023-10-20T01:22:35.683Z,11.76
2023-10-20T01:25:39.708Z,11.76
2023-10-20T01:28:41.617Z,11.77
2023-10-20T01:31:43.431Z,11.74
2023-10-20T01:34:45.589Z,11.76
2023-10-20T01:37:47.461Z,11.77
2023-10-20T01:40:51.618Z,11.80
2023-10-20T01:43:53.491Z,11.77
2023-10-20T01:46:55.897Z,11.76
2023-10-20T01:49:58.323Z,11.85
2023-10-20T01:53:00.211Z,12.03
2023-10-20T01:56:03.783Z,12.02
2023-10-20T01:59:05.748Z,11.91
2023-10-20T02:02:07.716Z,11.94
2023-10-20T02:05:10.702Z,12.07
2023-10-20T02:08:13.493Z,12.03
2023-10-20T02:11:17.677Z,11.84
2023-10-20T02:14:19.659Z,11.90
2023-10-20T02:17:22.226Z,12.05
2023-10-20T02:20:26.415Z,11.95
2023-10-20T02:23:31.133Z,11.83
2023-10-20T02:26:34.531Z,11.90
2023-10-20T02:29:36.598Z,12.09
2023-10-20T02:32:39.325Z,12.18
2023-10-20T02:35:41.382Z,12.21
2023-10-20T02:38:44.271Z,12.23
2023-10-20T02:41:47.657Z,12.29
2023-10-20T02:44:50.237Z,12.31
2023-10-20T02:47:52.220Z,12.35
2023-10-20T02:50:55.164Z,12.37
2023-10-20T02:53:57.060Z,12.35
2023-10-20T02:57:00.309Z,12.35
2023-10-20T03:00:05.319Z,12.38
2023-10-20T03:03:07.377Z,12.42
2023-10-20T03:06:10.114Z,12.42
2023-10-20T03:09:14.739Z,12.41
2023-10-20T03:12:18.466Z,12.42
2023-10-20T03:15:20.951Z,12.41
2023-10-20T03:18:23.013Z,12.41
2023-10-20T03:21:25.125Z,12.41
2023-10-20T03:24:26.954Z,12.43
2023-10-20T03:27:30.985Z,12.50
2023-10-20T03:30:37.958Z,12.45
2023-10-20T03:33:39.984Z,12.47
2023-10-20T03:36:41.843Z,12.46
2023-10-20T03:39:44.842Z,12.48
2023-10-20T03:42:49.694Z,12.47
2023-10-20T03:45:53.412Z,12.46
2023-10-20T03:48:55.946Z,12.50
2023-10-20T03:51:57.935Z,12.52
2023-10-20T03:55:01.592Z,12.57
2023-10-20T03:58:05.402Z,12.63
2023-10-20T04:01:09.172Z,12.67
2023-10-20T04:04:13.076Z,12.71
2023-10-20T04:07:16.280Z,12.74
2023-10-20T04:10:21.961Z,12.50
2023-10-20T04:13:25.494Z,12.47
2023-10-20T04:16:30.257Z,12.64
2023-10-20T04:19:33.974Z,12.63
2023-10-20T04:22:39.477Z,12.70
2023-10-20T04:25:45.821Z,12.70
2023-10-20T04:28:52.371Z,12.47
2023-10-20T04:32:13.491Z,12.30
2023-10-20T04:35:34.460Z,12.24
2023-10-20T04:38:54.940Z,12.15
2023-10-20T04:41:57.775Z,12.12
2023-10-20T04:45:19.742Z,12.27
2023-10-20T04:48:31.068Z,12.45
2023-10-20T04:51:52.522Z,12.52
2023-10-20T04:55:00.001Z,12.62
2023-10-20T04:58:19.381Z,12.62
2023-10-20T05:01:42.185Z,12.58
2023-10-20T05:04:47.611Z,12.62
2023-10-20T05:07:51.928Z,12.59
2023-10-20T05:10:55.421Z,12.63
2023-10-20T05:13:57.623Z,12.69
2023-10-20T05:17:00.972Z,12.79
2023-10-20T05:20:06.483Z,12.76
2023-10-20T05:23:09.114Z,12.74
2023-10-20T05:26:11.736Z,12.74
2023-10-20T05:29:15.604Z,12.81
2023-10-20T05:32:19.113Z,12.97
2023-10-20T05:35:21.440Z,13.11
2023-10-20T05:38:23.755Z,13.30
2023-10-20T05:41:25.769Z,13.48
2023-10-20T05:44:31.680Z,13.61
2023-10-20T05:47:35.015Z,14.09
2023-10-20T05:50:37.420Z,14.34
2023-10-20T05:53:39.735Z,14.35
2023-10-20T05:56:41.735Z,14.21
2023-10-20T05:59:44.333Z,14.04
2023-10-20T06:02:47.982Z,12.66
2023-10-20T06:05:50.760Z,12.14
2023-10-20T06:08:52.678Z,12.11
2023-10-20T06:11:57.914Z,12.03
2023-10-20T06:14:59.816Z,11.93
2023-10-20T06:18:05.676Z,11.77
2023-10-20T06:21:11.742Z,11.66
2023-10-20T06:24:15.517Z,11.62
2023-10-20T06:27:17.335Z,11.64
2023-10-20T06:30:24.858Z,11.74
2023-10-20T06:33:38.505Z,12.31
2023-10-20T06:36:48.156Z,12.83
2023-10-20T06:39:50.729Z,13.32
2023-10-20T06:42:52.672Z,13.65
2023-10-20T06:45:57.882Z,13.91
2023-10-20T06:49:01.168Z,14.17
2023-10-20T06:52:05.130Z,14.24
2023-10-20T06:55:42.654Z,14.33
2023-10-20T06:58:31.585Z,14.46
2023-10-20T07:01:34.454Z,14.52
2023-10-20T07:04:38.637Z,13.56
2023-10-20T07:07:41.669Z,13.46
2023-10-20T07:10:44.627Z,13.44
2023-10-20T07:13:46.535Z,13.47
2023-10-20T07:16:48.548Z,13.55
2023-10-20T07:19:51.893Z,13.80
2023-10-20T07:22:54.482Z,13.89
2023-10-20T07:25:56.368Z,14.09
2023-10-20T07:28:58.265Z,14.29
2023-10-20T07:32:00.152Z,14.67
2023-10-20T07:35:04.450Z,14.88
2023-10-20T07:38:06.714Z,15.10
2023-10-20T07:41:11.199Z,15.14
2023-10-20T07:44:13.942Z,15.18
2023-10-20T07:47:15.914Z,15.19
2023-10-20T07:50:20.624Z,15.22
2023-10-20T07:53:22.665Z,15.18
2023-10-20T07:56:26.385Z,15.17
2023-10-20T07:59:30.165Z,15.22
2023-10-20T08:02:32.646Z,15.24
2023-10-20T08:05:37.152Z,15.25
2023-10-20T08:08:39.390Z,15.40
2023-10-20T08:11:43.295Z,15.61
2023-10-20T08:14:45.388Z,15.71
2023-10-20T08:17:47.532Z,15.84
2023-10-20T08:20:51.796Z,16.09
2023-10-20T08:23:53.803Z,16.27
2023-10-20T08:26:56.368Z,16.36
2023-10-20T08:29:59.155Z,16.36
2023-10-20T08:33:01.321Z,16.46
2023-10-20T08:36:16.269Z,16.60
2023-10-20T08:39:21.843Z,16.80
2023-10-20T08:42:23.476Z,16.93
2023-10-20T08:45:28.082Z,17.08
2023-10-20T08:48:30.031Z,17.02
2023-10-20T08:51:34.652Z,16.93
2023-10-20T08:54:36.558Z,16.81
2023-10-20T08:57:39.124Z,16.78
2023-10-20T09:00:47.552Z,16.71
2023-10-20T09:04:02.228Z,16.89
2023-10-20T09:07:15.408Z,16.88
2023-10-20T09:10:17.536Z,16.91
2023-10-20T09:13:19.355Z,16.97
2023-10-20T09:16:21.312Z,16.95
2023-10-20T09:19:24.163Z,17.01
2023-10-20T09:22:30.772Z,17.11
2023-10-20T09:25:33.209Z,17.15
2023-10-20T09:28:37.052Z,17.40
2023-10-20T09:31:40.106Z,17.58
2023-10-20T09:34:42.222Z,17.68
2023-10-20T09:37:52.300Z,17.78
2023-10-20T09:41:09.755Z,18.02
2023-10-20T09:44:21.517Z,18.20
2023-10-20T09:47:28.339Z,18.39
2023-10-20T09:50:33.069Z,18.91
2023-10-20T09:53:37.050Z,19.16
2023-10-20T09:56:40.364Z,19.27
2023-10-20T09:59:43.333Z,19.55
2023-10-20T10:02:46.136Z,19.83
2023-10-20T10:05:48.208Z,19.65
2023-10-20T10:08:54.377Z,19.52
2023-10-20T10:11:56.558Z,19.72
2023-10-20T10:15:00.513Z,20.08
2023-10-20T10:18:10.389Z,20.14
2023-10-20T10:21:24.451Z,20.12
2023-10-20T10:24:27.798Z,20.12
2023-10-20T10:27:31.373Z,20.12
2023-10-20T10:30:33.500Z,20.24
2023-10-20T10:33:36.421Z,20.33
2023-10-20T10:36:51.164Z,20.55
2023-10-20T10:39:55.474Z,20.69
2023-10-20T10:42:58.504Z,20.75
2023-10-20T10:46:00.353Z,20.90
2023-10-20T10:49:07.248Z,20.89
2023-10-20T10:52:09.097Z,21.01
2023-10-20T10:55:14.725Z,20.91
2023-10-20T10:58:16.866Z,21.05
2023-10-20T11:01:18.869Z,21.15
2023-10-20T11:04:21.334Z,21.00
2023-10-20T11:07:23.850Z,20.95
2023-10-20T11:10:28.668Z,21.00
2023-10-20T11:13:30.973Z,21.02
2023-10-20T11:16:35.133Z,21.10
2023-10-20T11:19:38.703Z,21.06
2023-10-20T11:22:40.978Z,21.03
2023-10-20T11:25:46.462Z,21.16
2023-10-20T11:28:48.359Z,21.53
2023-10-20T11:31:50.257Z,21.83
2023-10-20T11:34:52.986Z,21.94
2023-10-20T11:37:55.717Z,22.11
2023-10-20T11:41:00.321Z,22.36
2023-10-20T11:44:02.146Z,22.48
2023-10-20T11:47:04.884Z,22.64
2023-10-20T11:50:09.956Z,22.64
2023-10-20T11:53:13.842Z,22.71
2023-10-20T11:56:18.184Z,22.92
2023-10-20T11:59:20.088Z,22.96
2023-10-20T12:02:24.310Z,22.86
2023-10-20T12:05:27.115Z,22.90
2023-10-20T12:08:30.767Z,22.83
2023-10-20T12:11:34.778Z,22.69
2023-10-20T12:14:37.038Z,22.79
2023-10-20T12:17:42.437Z,22.88
2023-10-20T12:20:44.828Z,23.03
2023-10-20T12:23:46.998Z,23.07
2023-10-20T12:26:51.245Z,22.96
2023-10-20T12:29:53.249Z,22.82
2023-10-20T12:32:55.873Z,22.88
2023-10-20T12:35:58.713Z,22.97
2023-10-20T12:39:01.578Z,22.96
2023-10-20T12:42:06.162Z,23.00
2023-10-20T12:45:10.522Z,23.17
2023-10-20T12:48:12.644Z,23.06
2023-10-20T12:51:14.862Z,23.16
2023-10-20T12:54:16.794Z,23.76
2023-10-20T12:57:20.132Z,23.58
2023-10-20T13:00:22.311Z,23.98
2023-10-20T13:03:25.577Z,24.21
2023-10-20T13:06:27.593Z,24.48
2023-10-20T13:09:29.688Z,24.60
2023-10-20T13:12:33.151Z,24.57
2023-10-20T13:15:35.029Z,24.43
2023-10-20T13:18:37.642Z,24.22
2023-10-20T13:21:39.520Z,24.08
2023-10-20T13:24:41.771Z,24.05
2023-10-20T13:27:45.059Z,23.97
2023-10-20T13:31:07.582Z,23.72
2023-10-20T13:34:09.891Z,23.64
2023-10-20T13:37:11.868Z,23.59
2023-10-20T13:40:14.664Z,23.54
2023-10-20T13:43:17.949Z,23.54
2023-10-20T13:46:19.895Z,23.38
2023-10-20T13:49:22.625Z,23.30
2023-10-20T13:52:24.664Z,23.25
2023-10-20T13:55:27.040Z,23.14
2023-10-20T13:58:30.300Z,23.19
2023-10-20T14:01:32.599Z,23.18
2023-10-20T14:04:34.775Z,23.19
2023-10-20T14:07:37.848Z,23.60
2023-10-20T14:10:39.785Z,23.27
2023-10-20T14:13:43.198Z,23.48
2023-10-20T14:16:45.144Z,23.59
2023-10-20T14:19:47.545Z,23.31
2023-10-20T14:22:49.362Z,23.74
2023-10-20T14:25:57.246Z,23.90
2023-10-20T14:29:00.576Z,23.97
2023-10-20T14:32:02.566Z,23.98
2023-10-20T14:35:07.693Z,23.93
2023-10-20T14:38:09.583Z,23.93
2023-10-20T14:41:11.636Z,24.14
2023-10-20T14:44:14.949Z,24.05
2023-10-20T14:47:17.423Z,24.08
2023-10-20T14:50:19.320Z,24.18
2023-10-20T14:53:22.024Z,24.07
2023-10-20T14:56:23.934Z,23.97
2023-10-20T14:59:27.891Z,24.09
2023-10-20T15:02:29.813Z,24.03
2023-10-20T15:05:32.428Z,24.13
2023-10-20T15:08:34.741Z,24.04
2023-10-20T15:11:37.500Z,24.00
2023-10-20T15:14:40.797Z,24.06
2023-10-20T15:17:42.810Z,24.07
2023-10-20T15:20:46.017Z,24.27
2023-10-20T15:23:48.104Z,24.18
2023-10-20T15:26:51.495Z,24.23
2023-10-20T15:29:54.972Z,24.33
2023-10-20T15:32:57.097Z,24.23
2023-10-20T15:35:59.365Z,24.33
2023-10-20T15:39:01.308Z,24.34
2023-10-20T15:42:04.375Z,24.32
2023-10-20T15:45:11.504Z,24.36
2023-10-20T15:48:14.435Z,24.47
2023-10-20T15:51:18.796Z,24.40
2023-10-20T15:54:21.202Z,24.43
2023-10-20T15:57:23.444Z,24.60
2023-10-20T16:00:26.671Z,24.19
2023-10-20T16:03:29.668Z,24.22
2023-10-20T16:06:31.761Z,24.23
2023-10-20T16:09:33.975Z,24.38
2023-10-20T16:12:36.289Z,24.42
2023-10-20T16:15:39.675Z,24.08
2023-10-20T16:18:41.785Z,24.00
2023-10-20T16:21:44.450Z,23.54
2023-10-20T16:24:47.401Z,23.61
2023-10-20T16:27:50.380Z,23.46
2023-10-20T16:30:53.807Z,23.24
2023-10-20T16:33:56.194Z,23.23
2023-10-20T16:36:58.421Z,23.25
2023-10-20T16:40:03.449Z,23.50
2023-10-20T16:43:08.483Z,23.01
2023-10-20T16:46:15.451Z,22.86
2023-10-20T16:49:17.484Z,22.61
2023-10-20T16:52:19.879Z,22.71
2023-10-20T16:55:22.277Z,22.91
2023-10-20T16:58:28.025Z,23.19
2023-10-20T17:01:33.213Z,23.48
2023-10-20T17:04:36.056Z,23.64
2023-10-20T17:07:38.928Z,24.08
2023-10-20T17:10:41.931Z,24.34
2023-10-20T17:13:44.263Z,24.26
2023-10-20T17:16:48.375Z,24.43
2023-10-20T17:19:50.306Z,24.44
2023-10-20T17:22:52.910Z,24.51
2023-10-20T17:25:55.926Z,24.48
2023-10-20T17:28:58.753Z,24.58
2023-10-20T17:32:02.946Z,24.68
2023-10-20T17:35:07.510Z,24.51
2023-10-20T17:38:11.312Z,24.62
2023-10-20T17:41:14.192Z,24.60
2023-10-20T17:44:17.688Z,24.64
2023-10-20T17:47:21.851Z,24.53
2023-10-20T17:50:24.621Z,24.59
2023-10-20T17:53:28.326Z,24.66
2023-10-20T17:56:31.188Z,24.56
2023-10-20T17:59:34.449Z,24.63
2023-10-20T18:02:38.439Z,24.46
2023-10-20T18:05:41.415Z,24.44
2023-10-20T18:08:45.924Z,24.52
2023-10-20T18:11:50.727Z,24.38
2023-10-20T18:14:53.910Z,24.32
2023-10-20T18:17:58.208Z,24.33
2023-10-20T18:21:02.721Z,24.50
2023-10-20T18:24:10.997Z,24.40
2023-10-20T18:27:14.049Z,24.31
2023-10-20T18:30:16.639Z,24.27
2023-10-20T18:33:22.028Z,24.51
2023-10-20T18:36:25.494Z,24.46
2023-10-20T18:39:29.888Z,24.43
2023-10-20T18:42:32.927Z,24.44
2023-10-20T18:45:36.809Z,24.56
2023-10-20T18:48:42.023Z,24.36
2023-10-20T18:51:45.407Z,24.24
2023-10-20T18:54:48.961Z,24.34
2023-10-20T18:57:51.989Z,24.31
2023-10-20T19:00:58.788Z,24.27
2023-10-20T19:04:08.749Z,24.36
2023-10-20T19:07:13.522Z,24.31
2023-10-20T19:10:18.895Z,24.36
2023-10-20T19:13:22.694Z,24.06
2023-10-20T19:16:26.664Z,24.19
2023-10-20T19:19:32.768Z,23.91
2023-10-20T19:22:36.461Z,24.20
2023-10-20T19:25:41.960Z,24.00
2023-10-20T19:28:45.152Z,23.97
2023-10-20T19:31:47.938Z,23.80
2023-10-20T19:34:52.196Z,23.64
2023-10-20T19:37:54.366Z,23.59
2023-10-20T19:40:58.116Z,23.64
2023-10-20T19:44:00.352Z,23.63
2023-10-20T19:47:04.013Z,23.33
2023-10-20T19:50:09.572Z,23.14
2023-10-20T19:53:13.203Z,23.03
2023-10-20T19:56:15.475Z,22.70
2023-10-20T19:59:19.603Z,22.55
2023-10-20T20:02:21.889Z,22.37
2023-10-20T20:05:29.199Z,22.45
2023-10-20T20:08:34.655Z,22.43
2023-10-20T20:11:37.887Z,22.32
2023-10-20T20:14:40.837Z,22.23
2023-10-20T20:17:43.321Z,22.15
2023-10-20T20:20:47.390Z,22.09
2023-10-20T20:23:50.668Z,22.05
2023-10-20T20:26:54.631Z,21.94
2023-10-20T20:29:57.086Z,21.81
2023-10-20T20:32:59.826Z,21.76
2023-10-20T20:36:03.877Z,21.70
2023-10-20T20:39:06.798Z,21.64
2023-10-20T20:42:08.730Z,21.60
2023-10-20T20:45:11.843Z,21.51
2023-10-20T20:48:13.781Z,21.46
2023-10-20T20:51:18.063Z,21.47
2023-10-20T20:54:19.911Z,21.61
2023-10-20T20:57:21.790Z,21.67
2023-10-20T21:00:24.594Z,21.78
2023-10-20T21:03:26.603Z,21.76
2023-10-20T21:06:29.889Z,21.56
2023-10-20T21:09:32.849Z,21.39
2023-10-20T21:12:34.741Z,21.23
2023-10-20T21:15:37.968Z,21.16
2023-10-20T21:18:40.984Z,21.19
2023-10-20T21:21:44.312Z,21.21
2023-10-20T21:24:46.219Z,21.24
2023-10-20T21:27:48.440Z,21.33
2023-10-20T21:30:50.338Z,21.39
2023-10-20T21:33:52.429Z,21.41
2023-10-20T21:36:56.515Z,21.43
2023-10-20T21:39:58.453Z,21.36
2023-10-20T21:43:00.441Z,21.24
2023-10-20T21:46:02.456Z,21.10
2023-10-20T21:49:04.597Z,20.94
2023-10-20T21:52:07.856Z,20.85
2023-10-20T21:55:10.577Z,20.79
2023-10-20T21:58:12.435Z,20.70
2023-10-20T22:01:14.792Z,20.61
2023-10-20T22:04:16.789Z,20.50
2023-10-20T22:07:20.742Z,20.34
2023-10-20T22:10:22.723Z,20.22
2023-10-20T22:13:24.710Z,20.30
2023-10-20T22:16:26.569Z,20.35
2023-10-20T22:19:28.771Z,20.39
2023-10-20T22:22:32.651Z,20.43
2023-10-20T22:25:35.433Z,20.37
2023-10-20T22:28:37.332Z,20.40
2023-10-20T22:31:39.400Z,20.44
2023-10-20T22:34:41.286Z,20.48
2023-10-20T22:37:44.661Z,20.42
2023-10-20T22:40:46.759Z,20.32
2023-10-20T22:43:48.587Z,20.32
2023-10-20T22:46:51.747Z,20.48
2023-10-20T22:49:53.739Z,20.54
2023-10-20T22:52:57.677Z,20.68
2023-10-20T22:55:59.502Z,20.82
2023-10-20T22:59:01.382Z,20.89
2023-10-20T23:02:03.631Z,21.01
2023-10-20T23:05:07.831Z,20.99
2023-10-20T23:08:11.604Z,20.95
2023-10-20T23:11:14.101Z,20.94
2023-10-20T23:14:16.392Z,20.95
2023-10-20T23:17:19.289Z,20.98
2023-10-20T23:20:21.170Z,20.95
2023-10-20T23:23:24.706Z,20.86
2023-10-20T23:26:26.631Z,20.76
2023-10-20T23:29:28.754Z,20.50
2023-10-20T23:32:31.348Z,20.39
2023-10-20T23:35:33.341Z,20.37
2023-10-20T23:38:37.651Z,20.36
2023-10-20T23:41:39.675Z,20.23
2023-10-20T23:44:41.594Z,20.26
2023-10-20T23:47:44.244Z,20.11
2023-10-20T23:50:47.192Z,20.19
2023-10-20T23:53:50.714Z,20.19
2023-10-20T23:56:52.576Z,20.31
2023-10-20T23:59:54.525Z,20.41
